Time;durP1;ratioP1;P1;durP2;ratioP2;P2;SDS_P1;SDS_P2;PMS_P1;PMS_P2;Temp;Humidity;BMP_temperature;BMP_pressure;BME280_temperature;BME280_humidity;BME280_pressure;Samples;Min_cycle;Max_cycle;Signal;HPM_P1;HPM_P2
2021/05/10 00:00:25;;;;;;;2.90;1.70;;;;;;;;;;5112134;28;20535;-68
2021/05/10 00:02:51;;;;;;;2.13;1.87;;;;;;;;;;5111242;28;20931;-68
2021/05/10 00:05:18;;;;;;;2.77;2.23;;;;;;;;;;5111573;28;21027;-68
2021/05/10 00:07:44;;;;;;;2.80;1.60;;;;;;;;;;5110989;28;20538;-68
2021/05/10 00:10:11;;;;;;;2.13;1.73;;;;;;;;;;5111522;28;20447;-68
2021/05/10 00:12:38;;;;;;;2.50;1.60;;;;;;;;;;5111175;28;20523;-68
2021/05/10 00:15:07;;;;;;;1.70;1.60;;;;;;;;;;5111305;28;20474;-68
2021/05/10 00:17:33;;;;;;;1.63;1.53;;;;;;;;;;5111119;28;20535;-68
2021/05/10 00:20:00;;;;;;;1.70;1.53;;;;;;;;;;5111603;28;20526;-68
2021/05/10 00:22:27;;;;;;;2.70;2.17;;;;;;;;;;5059630;28;20522;-68
2021/05/10 00:24:53;;;;;;;3.50;2.07;;;;;;;;;;5111615;28;20548;-66
2021/05/10 00:27:20;;;;;;;1.90;1.70;;;;;;;;;;5111913;28;20815;-66
2021/05/10 00:29:47;;;;;;;1.77;1.40;;;;;;;;;;5110796;28;20447;-66
2021/05/10 00:32:14;;;;;;;1.60;1.50;;;;;;;;;;5111643;28;20474;-66
2021/05/10 00:34:41;;;;;;;3.40;1.90;;;;;;;;;;5110884;28;20443;-67
2021/05/10 00:37:08;;;;;;;3.60;1.90;;;;;;;;;;5111467;28;20523;-66
2021/05/10 00:39:34;;;;;;;1.90;1.50;;;;;;;;;;5111086;28;20463;-66
2021/05/10 00:42:01;;;;;;;3.53;1.80;;;;;;;;;;5111303;28;21010;-66
2021/05/10 00:44:28;;;;;;;1.50;1.40;;;;;;;;;;5111326;28;20483;-66
2021/05/10 00:46:55;;;;;;;2.50;2.03;;;;;;;;;;5111330;28;20967;-66
2021/05/10 00:49:22;;;;;;;3.47;1.70;;;;;;;;;;5111670;28;20439;-66
2021/05/10 00:51:49;;;;;;;2.67;1.63;;;;;;;;;;5111036;28;20519;-66
2021/05/10 00:54:16;;;;;;;2.50;1.90;;;;;;;;;;5110893;28;20471;-65
2021/05/10 00:56:42;;;;;;;2.20;2.00;;;;;;;;;;5110189;28;20562;-66
2021/05/10 00:59:09;;;;;;;2.87;1.97;;;;;;;;;;5110878;28;20531;-65
2021/05/10 01:01:36;;;;;;;2.40;1.77;;;;;;;;;;5110889;28;20478;-65
2021/05/10 01:04:03;;;;;;;2.03;1.80;;;;;;;;;;5111362;28;20439;-66
2021/05/10 01:06:31;;;;;;;2.00;1.80;;;;;;;;;;5113008;28;20479;-65
2021/05/10 01:08:57;;;;;;;5.80;1.70;;;;;;;;;;5115454;28;20530;-65
2021/05/10 01:11:24;;;;;;;1.53;1.43;;;;;;;;;;5115117;28;20496;-65
2021/05/10 01:13:51;;;;;;;2.27;2.07;;;;;;;;;;5101894;28;21338;-66
2021/05/10 01:16:17;;;;;;;5.23;3.50;;;;;;;;;;5115267;28;20486;-66
2021/05/10 01:18:45;;;;;;;2.57;1.60;;;;;;;;;;5114255;28;20555;-66
2021/05/10 01:21:12;;;;;;;3.40;1.93;;;;;;;;;;5114875;28;20450;-67
2021/05/10 01:23:39;;;;;;;2.80;1.80;;;;;;;;;;5114737;28;20528;-67
2021/05/10 01:26:06;;;;;;;2.30;2.07;;;;;;;;;;5114978;28;20447;-67
2021/05/10 01:28:33;;;;;;;2.67;2.30;;;;;;;;;;5114021;28;20450;-66
2021/05/10 01:30:59;;;;;;;3.60;1.80;;;;;;;;;;5115149;28;20853;-67
2021/05/10 01:33:26;;;;;;;3.80;2.17;;;;;;;;;;5114556;28;20443;-67
2021/05/10 01:35:53;;;;;;;2.93;2.20;;;;;;;;;;5114347;28;20443;-67
2021/05/10 01:38:19;;;;;;;2.83;2.10;;;;;;;;;;5114757;28;20439;-67
2021/05/10 01:40:47;;;;;;;2.20;2.00;;;;;;;;;;5114150;28;20434;-67
2021/05/10 01:43:15;;;;;;;3.20;2.20;;;;;;;;;;5114485;28;21047;-67
2021/05/10 01:45:42;;;;;;;1.70;1.50;;;;;;;;;;5113915;28;20534;-66
2021/05/10 01:48:10;;;;;;;1.93;1.73;;;;;;;;;;5114305;28;20428;-67
2021/05/10 01:50:37;;;;;;;2.90;2.10;;;;;;;;;;5113763;28;20436;-66
2021/05/10 01:53:04;;;;;;;4.17;1.80;;;;;;;;;;5114647;28;20522;-67
2021/05/10 01:55:31;;;;;;;1.93;1.73;;;;;;;;;;5114167;28;20530;-67
2021/05/10 01:58:00;;;;;;;2.13;1.80;;;;;;;;;;5113656;28;20557;-67
2021/05/10 02:00:27;;;;;;;2.50;1.87;;;;;;;;;;5114129;28;21023;-67
2021/05/10 02:02:59;;;;;;;2.23;2.03;;;;;;;;;;5113025;28;20440;-67
2021/05/10 02:05:26;;;;;;;2.60;1.80;;;;;;;;;;5113945;28;20432;-66
2021/05/10 02:07:53;;;;;;;2.30;2.10;;;;;;;;;;5113444;28;20522;-66
2021/05/10 02:10:21;;;;;;;1.70;1.60;;;;;;;;;;5113699;28;20963;-66
2021/05/10 02:12:54;;;;;;;3.10;2.10;;;;;;;;;;5113616;28;20821;-66
2021/05/10 02:15:22;;;;;;;3.83;2.10;;;;;;;;;;5110655;28;20898;-67
2021/05/10 02:17:49;;;;;;;3.33;2.10;;;;;;;;;;5113452;28;20582;-67
2021/05/10 02:20:16;;;;;;;2.20;2.00;;;;;;;;;;5113777;28;20442;-67
2021/05/10 02:22:49;;;;;;;2.10;1.80;;;;;;;;;;5113404;28;20592;-67
2021/05/10 02:25:18;;;;;;;2.53;2.20;;;;;;;;;;5113787;28;20432;-67
2021/05/10 02:27:45;;;;;;;1.83;1.73;;;;;;;;;;5112966;28;20454;-67
2021/05/10 02:30:12;;;;;;;3.80;2.53;;;;;;;;;;5093687;28;20498;-67
2021/05/10 02:32:39;;;;;;;2.60;1.97;;;;;;;;;;5092683;28;20443;-66
2021/05/10 02:35:06;;;;;;;2.90;1.80;;;;;;;;;;5111350;28;20492;-68
2021/05/10 02:37:33;;;;;;;5.30;2.00;;;;;;;;;;5113551;28;20480;-67
2021/05/10 02:39:59;;;;;;;6.77;2.47;;;;;;;;;;5113035;28;20526;-67
2021/05/10 02:42:26;;;;;;;5.03;1.60;;;;;;;;;;5113406;28;20526;-67
2021/05/10 02:44:53;;;;;;;4.10;2.17;;;;;;;;;;5112445;28;20455;-67
2021/05/10 02:47:19;;;;;;;2.67;2.00;;;;;;;;;;5112968;28;20475;-67
2021/05/10 02:49:47;;;;;;;1.90;1.80;;;;;;;;;;5112510;28;20534;-67
2021/05/10 02:52:14;;;;;;;3.27;2.13;;;;;;;;;;5113491;28;20447;-67
2021/05/10 02:54:40;;;;;;;4.03;2.80;;;;;;;;;;5112338;28;20466;-66
2021/05/10 02:57:07;;;;;;;2.90;2.20;;;;;;;;;;5113383;28;20527;-67
2021/05/10 02:59:34;;;;;;;3.83;2.67;;;;;;;;;;5112930;28;20527;-67
2021/05/10 03:02:00;;;;;;;3.97;2.20;;;;;;;;;;5112595;28;20448;-68
2021/05/10 03:04:27;;;;;;;3.00;2.40;;;;;;;;;;5113192;28;20865;-67
2021/05/10 03:06:54;;;;;;;2.90;1.97;;;;;;;;;;5112490;28;20799;-67
2021/05/10 03:09:21;;;;;;;4.00;2.10;;;;;;;;;;5112914;28;20535;-67
2021/05/10 03:11:48;;;;;;;4.70;1.93;;;;;;;;;;5112006;28;20501;-67
2021/05/10 03:14:14;;;;;;;4.83;2.47;;;;;;;;;;5112621;28;20454;-67
2021/05/10 03:16:41;;;;;;;3.10;2.80;;;;;;;;;;5111965;28;20483;-67
2021/05/10 03:19:09;;;;;;;2.57;2.20;;;;;;;;;;5112894;28;20475;-67
2021/05/10 03:21:36;;;;;;;2.47;2.20;;;;;;;;;;5112374;28;20504;-67
2021/05/10 03:24:05;;;;;;;3.10;2.10;;;;;;;;;;5112208;28;20522;-68
2021/05/10 03:26:31;;;;;;;3.30;2.23;;;;;;;;;;5112890;28;20613;-67
2021/05/10 03:28:58;;;;;;;3.17;1.80;;;;;;;;;;5111436;28;20534;-68
2021/05/10 03:31:24;;;;;;;3.70;2.30;;;;;;;;;;5112660;28;20526;-67
2021/05/10 03:33:51;;;;;;;3.90;2.90;;;;;;;;;;5111278;28;20454;-68
2021/05/10 03:36:18;;;;;;;1.83;1.70;;;;;;;;;;5111740;28;21100;-68
2021/05/10 03:38:44;;;;;;;3.33;2.13;;;;;;;;;;5112063;28;20527;-67
2021/05/10 03:41:12;;;;;;;2.80;2.00;;;;;;;;;;5112143;28;20868;-67
2021/05/10 03:43:39;;;;;;;2.27;1.80;;;;;;;;;;5111138;28;20843;-67
2021/05/10 03:46:06;;;;;;;3.87;2.00;;;;;;;;;;5111558;28;20527;-68
2021/05/10 03:48:32;;;;;;;2.27;1.90;;;;;;;;;;5111775;28;20438;-68
2021/05/10 03:50:59;;;;;;;2.97;1.93;;;;;;;;;;5111382;28;20492;-69
2021/05/10 03:53:26;;;;;;;4.97;3.20;;;;;;;;;;5112013;28;20443;-68
2021/05/10 03:55:52;;;;;;;3.77;2.50;;;;;;;;;;5111308;28;20492;-68
2021/05/10 03:58:20;;;;;;;3.07;2.77;;;;;;;;;;5112033;28;20543;-68
2021/05/10 04:00:47;;;;;;;1.80;1.70;;;;;;;;;;5110378;28;21061;-68
2021/05/10 04:03:15;;;;;;;3.80;2.53;;;;;;;;;;5111203;28;20505;-68
2021/05/10 04:05:58;;;;;;;2.87;2.57;;;;;;;;;;5100300;28;20451;-68
2021/05/10 04:08:45;;;;;;;2.93;2.27;;;;;;;;;;5112096;28;20435;-67
2021/05/10 04:11:23;;;;;;;2.53;2.30;;;;;;;;;;5091826;28;20452;-68
2021/05/10 04:13:53;;;;;;;6.90;2.30;;;;;;;;;;5090979;28;20429;-68
2021/05/10 04:16:20;;;;;;;3.57;2.20;;;;;;;;;;5091810;28;20488;-69
2021/05/10 04:18:47;;;;;;;5.27;2.63;;;;;;;;;;5091078;28;20436;-68
2021/05/10 04:21:13;;;;;;;3.30;2.20;;;;;;;;;;5094772;28;20467;-68
2021/05/10 04:23:40;;;;;;;2.77;1.93;;;;;;;;;;5111959;28;20500;-68
2021/05/10 04:26:07;;;;;;;3.57;2.23;;;;;;;;;;5111645;28;20521;-72
2021/05/10 04:28:35;;;;;;;2.23;2.03;;;;;;;;;;5111824;28;20431;-68
2021/05/10 04:31:02;;;;;;;2.60;2.40;;;;;;;;;;5111386;28;20833;-69
2021/05/10 04:33:29;;;;;;;5.37;2.50;;;;;;;;;;5111277;28;20530;-67
2021/05/10 04:35:56;;;;;;;3.70;2.53;;;;;;;;;;5111076;28;20989;-68
2021/05/10 04:38:24;;;;;;;2.30;2.10;;;;;;;;;;5111528;28;20539;-68
2021/05/10 04:40:51;;;;;;;4.80;2.83;;;;;;;;;;5111609;28;20962;-67
2021/05/10 04:43:20;;;;;;;2.93;2.13;;;;;;;;;;5115818;28;20427;-68
2021/05/10 04:45:46;;;;;;;8.77;6.23;;;;;;;;;;5115037;28;21003;-69
2021/05/10 04:48:14;;;;;;;3.60;2.40;;;;;;;;;;5116117;28;20522;-70
2021/05/10 04:50:40;;;;;;;2.77;2.40;;;;;;;;;;5115819;28;20438;-69
2021/05/10 04:53:10;;;;;;;7.53;3.70;;;;;;;;;;5115068;28;20444;-69
2021/05/10 04:55:37;;;;;;;3.73;2.37;;;;;;;;;;5115605;28;20999;-69
2021/05/10 04:58:03;;;;;;;4.80;2.50;;;;;;;;;;5115085;28;20475;-70
2021/05/10 05:00:30;;;;;;;6.10;2.27;;;;;;;;;;5115666;28;20443;-68
2021/05/10 05:02:57;;;;;;;5.23;2.40;;;;;;;;;;5114639;28;20584;-67
2021/05/10 05:05:24;;;;;;;4.40;1.70;;;;;;;;;;5114801;28;20440;-72
2021/05/10 05:07:51;;;;;;;3.10;2.27;;;;;;;;;;5114617;28;20471;-71
2021/05/10 05:10:17;;;;;;;2.20;1.93;;;;;;;;;;5115567;28;20447;-70
2021/05/10 05:12:48;;;;;;;5.60;2.50;;;;;;;;;;5115733;28;20527;-71
2021/05/10 05:15:15;;;;;;;4.90;2.53;;;;;;;;;;5115421;28;20439;-71
2021/05/10 05:17:42;;;;;;;4.13;2.00;;;;;;;;;;5115359;28;20506;-71
2021/05/10 05:20:09;;;;;;;4.47;2.00;;;;;;;;;;5114999;28;20479;-71
2021/05/10 05:22:36;;;;;;;4.77;2.10;;;;;;;;;;5115014;28;20522;-71
2021/05/10 05:25:03;;;;;;;3.20;1.87;;;;;;;;;;5114766;28;20503;-72
2021/05/10 05:27:30;;;;;;;5.83;2.50;;;;;;;;;;5115214;28;20435;-70
2021/05/10 05:29:57;;;;;;;3.97;2.50;;;;;;;;;;5114611;28;20554;-71
2021/05/10 05:32:23;;;;;;;3.13;2.10;;;;;;;;;;5115264;28;20445;-71
2021/05/10 05:34:50;;;;;;;2.20;2.00;;;;;;;;;;5114778;28;20616;-71
2021/05/10 05:37:17;;;;;;;4.80;2.80;;;;;;;;;;5114795;28;20477;-71
2021/05/10 05:39:44;;;;;;;5.13;2.50;;;;;;;;;;5114783;28;20439;-71
2021/05/10 05:42:11;;;;;;;7.67;3.00;;;;;;;;;;5114413;28;20435;-71
2021/05/10 05:44:39;;;;;;;2.53;1.97;;;23.00;1.00;;;;;;5114615;28;20534;-71
2021/05/10 05:47:05;;;;;;;3.30;1.90;;;17.30;99.90;;;;;;5114222;28;20475;-71
2021/05/10 05:49:34;;;;;;;3.27;2.07;;;17.20;1.00;;;;;;5114828;28;20431;-70
2021/05/10 05:52:03;;;;;;;2.40;1.97;;;17.10;1.00;;;;;;5114211;28;20776;-71
2021/05/10 05:54:30;;;;;;;5.43;2.57;;;17.20;1.00;;;;;;5114436;28;20562;-71
2021/05/10 05:56:57;;;;;;;2.80;2.10;;;17.30;1.00;;;;;;5114033;28;20566;-71
2021/05/10 05:59:24;;;;;;;3.30;1.93;;;17.40;99.90;;;;;;5114422;28;20959;-71
2021/05/10 06:01:50;;;;;;;3.70;2.40;;;17.60;99.90;;;;;;5113614;28;20480;-71
2021/05/10 06:04:17;;;;;;;2.50;1.60;;;17.60;99.90;;;;;;5114271;28;20461;-71
2021/05/10 06:06:43;;;;;;;2.37;1.57;;;17.70;99.90;;;;;;5114446;28;20539;-70
2021/05/10 06:09:10;;;;;;;3.50;1.93;;;17.70;99.90;;;;;;5113707;28;20538;-71
2021/05/10 06:11:37;;;;;;;3.33;2.10;;;17.80;99.90;;;;;;5114308;28;20431;-71
2021/05/10 06:14:05;;;;;;;2.40;1.70;;;17.80;99.90;;;;;;5113692;28;20535;-71
2021/05/10 06:16:31;;;;;;;4.00;2.07;;;17.80;99.90;;;;;;5114269;28;20467;-71
2021/05/10 06:18:58;;;;;;;1.53;1.30;;;17.90;99.90;;;;;;5113652;28;20526;-71
2021/05/10 06:21:25;;;;;;;3.93;1.60;;;17.90;99.90;;;;;;5114066;28;20530;-70
2021/05/10 06:23:52;;;;;;;2.10;1.80;;;18.00;99.90;;;;;;5113122;28;20443;-71
2021/05/10 06:26:18;;;;;;;3.90;1.70;;;18.10;99.90;;;;;;5113699;28;20953;-71
2021/05/10 06:28:45;;;;;;;3.13;2.40;;;18.20;99.90;;;;;;5113970;28;20475;-70
2021/05/10 06:31:13;;;;;;;3.17;2.43;;;18.30;99.90;;;;;;5113037;28;21067;-71
2021/05/10 06:33:40;;;;;;;2.67;2.20;;;18.40;99.90;;;;;;5113842;28;20488;-71
2021/05/10 06:36:06;;;;;;;5.00;2.80;;;18.50;90.00;;;;;;5112974;28;20443;-71
2021/05/10 06:38:33;;;;;;;7.13;3.20;;;18.50;63.00;;;;;;5113747;28;20501;-71
2021/05/10 06:41:00;;;;;;;5.10;3.27;;;18.80;1.00;;;;;;5112825;28;20530;-71
2021/05/10 06:43:27;;;;;;;10.17;3.20;;;19.00;1.00;;;;;;5113757;28;20514;-71
2021/05/10 06:45:53;;;;;;;3.90;2.93;;;19.10;99.90;;;;;;5112707;28;20520;-70
2021/05/10 06:48:28;;;;;;;8.73;3.70;;;19.30;99.90;;;;;;5113759;28;20512;-71
2021/05/10 06:50:54;;;;;;;7.60;2.87;;;19.40;99.90;;;;;;5112740;28;20431;-71
2021/05/10 06:53:21;;;;;;;7.37;3.20;;;19.70;99.90;;;;;;5113520;28;20849;-71
2021/05/10 06:55:48;;;;;;;9.23;3.63;;;19.70;99.90;;;;;;5113219;28;20448;-71
2021/05/10 06:58:15;;;;;;;5.83;2.73;;;;;;;;;;5112776;28;20612;-72
2021/05/10 07:00:42;;;;;;;6.13;2.80;;;;;;;;;;5113354;28;20458;-71
2021/05/10 07:03:08;;;;;;;4.10;2.70;;;;;;;;;;5112118;28;20443;-71
2021/05/10 07:05:36;;;;;;;7.70;2.10;;;;;;;;;;5112800;28;20479;-71
2021/05/10 07:08:08;;;;;;;6.27;3.27;;;;;;;;;;5112618;28;20600;-71
2021/05/10 07:10:35;;;;;;;4.20;2.80;;;;;;;;;;5113243;28;20787;-71
2021/05/10 07:13:02;;;;;;;3.13;2.17;;;;;;;;;;5112349;28;20526;-71
2021/05/10 07:15:29;;;;;;;5.47;2.73;;;;;;;;;;5112964;28;20529;-71
2021/05/10 07:18:02;;;;;;;2.37;1.67;;;;;;;;;;5112037;28;20475;-71
2021/05/10 07:20:28;;;;;;;3.30;1.67;;;;;;;;;;5112573;28;20931;-71
2021/05/10 07:22:56;;;;;;;3.90;1.73;;;;;;;;;;5112302;28;20443;-71
2021/05/10 07:25:23;;;;;;;4.30;2.60;;;;;;;;;;5112552;28;21002;-70
2021/05/10 07:27:49;;;;;;;3.03;2.00;;;;;;;;;;5112828;28;20448;-71
2021/05/10 07:30:17;;;;;;;6.20;2.20;;;;;;;;;;5112235;28;20436;-71
2021/05/10 07:32:43;;;;;;;3.67;2.13;;;19.90;99.90;;;;;;5112593;28;20523;-71
2021/05/10 07:35:10;;;;;;;6.20;2.80;;;21.30;99.90;;;;;;5112102;28;20535;-71
2021/05/10 07:37:36;;;;;;;9.80;2.10;;;21.30;99.90;;;;;;5112303;28;20567;-71
2021/05/10 07:40:04;;;;;;;3.03;1.70;;;21.30;99.90;;;;;;5112071;28;20551;-71
2021/05/10 07:42:30;;;;;;;2.30;1.60;;;21.30;99.90;;;;;;5112596;28;20484;-71
2021/05/10 07:44:57;;;;;;;5.87;1.47;;;21.30;99.90;;;;;;5111812;28;20986;-71
2021/05/10 07:47:23;;;;;;;2.10;1.63;;;21.40;99.90;;;;;;5112597;28;20480;-71
2021/05/10 07:49:49;;;;;;;3.23;1.70;;;21.30;99.90;;;;;;5112110;28;20474;-71
2021/05/10 07:52:16;;;;;;;1.60;1.50;;;21.50;99.90;;;;;;5111834;28;20546;-71
2021/05/10 07:54:43;;;;;;;2.20;2.00;;;21.60;99.90;;;;;;5112267;28;20475;-71
2021/05/10 07:57:10;;;;;;;8.77;1.77;;;21.80;99.90;;;;;;5111655;28;20576;-71
2021/05/10 07:59:37;;;;;;;3.00;1.53;;;21.90;99.90;;;;;;5111908;28;20519;-71
2021/05/10 08:02:05;;;;;;;2.93;1.90;;;21.80;99.90;;;;;;5111236;28;20435;-71
2021/05/10 08:04:31;;;;;;;3.90;1.90;;;21.90;99.90;;;;;;5112111;28;20508;-71
2021/05/10 08:06:58;;;;;;;2.33;1.87;;;21.90;99.90;;;;;;5111527;28;20472;-70
2021/05/10 08:09:25;;;;;;;2.77;2.00;;;22.00;99.90;;;;;;5112013;28;20443;-71
2021/05/10 08:11:51;;;;;;;2.27;2.07;;;21.80;99.90;;;;;;5112018;28;20606;-71
2021/05/10 08:14:18;;;;;;;2.27;1.77;;;21.60;99.90;;;;;;5111301;28;20440;-71
2021/05/10 08:16:46;;;;;;;2.03;1.83;;;21.40;99.90;;;;;;5112008;28;20486;-71
2021/05/10 08:19:13;;;;;;;4.13;2.53;;;21.70;99.90;;;;;;5111021;28;20448;-71
2021/05/10 08:21:40;;;;;;;2.03;1.83;;;21.70;99.90;;;;;;5111488;28;20484;-71
2021/05/10 08:24:07;;;;;;;2.43;1.80;;;21.90;99.90;;;;;;5110710;28;20448;-71
2021/05/10 08:26:34;;;;;;;2.10;2.00;;;;;;;;;;5111602;28;20527;-71
2021/05/10 08:29:01;;;;;;;2.40;2.03;;;;;;;;;;5111105;28;20444;-71
2021/05/10 08:31:28;;;;;;;2.00;1.60;;;;;;;;;;5111719;28;20468;-71
2021/05/10 08:33:55;;;;;;;2.60;2.00;;;;;;;;;;5111722;28;20444;-71
2021/05/10 08:36:23;;;;;;;1.73;1.60;;;;;;;;;;5111083;28;20443;-71
2021/05/10 08:38:51;;;;;;;2.47;2.00;;;;;;;;;;5111643;28;20769;-71
2021/05/10 08:41:18;;;;;;;3.33;2.20;;;;;;;;;;5110868;28;20881;-71
2021/05/10 08:43:44;;;;;;;2.20;2.00;;;;;;;;;;5111216;28;20443;-71
2021/05/10 08:46:11;;;;;;;3.80;2.40;;;;;;;;;;5110687;28;20487;-71
2021/05/10 08:48:38;;;;;;;5.40;2.40;;;;;;;;;;5111389;28;20444;-72
2021/05/10 08:51:05;;;;;;;3.63;2.10;;;;;;;;;;5110810;28;20470;-71
2021/05/10 08:53:32;;;;;;;4.57;2.40;;;;;;;;;;5111704;28;21017;-70
2021/05/10 08:55:59;;;;;;;9.40;2.53;;;;;;;;;;5111010;28;20535;-69
2021/05/10 08:58:26;;;;;;;3.60;2.10;;;;;;;;;;5111246;28;20987;-71
2021/05/10 09:00:53;;;;;;;2.57;1.70;;;;;;;;;;5111199;28;20475;-71
2021/05/10 09:03:20;;;;;;;2.43;2.13;;;;;;;;;;5110702;28;20444;-71
2021/05/10 09:05:48;;;;;;;4.03;1.67;;;;;;;;;;5111242;28;20475;-71
2021/05/10 09:08:15;;;;;;;1.83;1.67;;;;;;;;;;5110531;28;20796;-71
2021/05/10 09:10:42;;;;;;;3.13;2.10;;;;;;;;;;5111383;28;20443;-71
2021/05/10 09:13:09;;;;;;;6.53;2.00;;;;;;;;;;5110473;28;20526;-71
2021/05/10 09:15:36;;;;;;;3.33;1.90;;;;;;;;;;5111182;28;20452;-71
2021/05/10 09:18:04;;;;;;;3.53;1.73;;;;;;;;;;5110780;28;20471;-70
2021/05/10 09:20:31;;;;;;;3.30;1.87;;;;;;;;;;5111350;28;20498;-71
2021/05/10 09:23:00;;;;;;;3.40;2.20;;;;;;;;;;5111235;28;20863;-71
2021/05/10 09:25:30;;;;;;;5.13;1.70;;;;;;;;;;5111482;28;20435;-71
2021/05/10 09:28:10;;;;;;;4.23;2.20;;;;;;;;;;5113733;28;20526;-70
2021/05/10 09:30:37;;;;;;;3.97;1.90;;;;;;;;;;5115118;28;20445;-71
2021/05/10 09:33:04;;;;;;;2.50;1.90;;;;;;;;;;5114217;28;20522;-70
2021/05/10 09:35:32;;;;;;;4.73;2.47;;;;;;;;;;5115032;28;20592;-71
2021/05/10 09:38:06;;;;;;;2.40;1.63;;;;;;;;;;5114923;28;20562;-71
2021/05/10 09:40:41;;;;;;;1.90;1.77;;;;;;;;;;5114719;28;20450;-71
2021/05/10 09:43:08;;;;;;;4.17;2.30;;;;;;;;;;5113898;28;20439;-70
2021/05/10 09:45:37;;;;;;;2.30;1.73;;;;;;;;;;5114392;28;20974;-70
2021/05/10 09:48:04;;;;;;;2.73;2.10;;;;;;;;;;5114201;28;20420;-70
2021/05/10 09:50:34;;;;;;;1.53;1.30;;;;;;;;;;5114774;28;20524;-71
2021/05/10 09:53:02;;;;;;;2.20;1.70;;;;;;;;;;5114632;28;20443;-71
2021/05/10 09:55:47;;;;;;;6.20;2.07;;;;;;;;;;5114587;28;20447;-70
2021/05/10 09:58:15;;;;;;;6.20;1.40;;;;;;;;;;5113974;28;20467;-70
2021/05/10 10:00:42;;;;;;;3.30;2.00;;;;;;;;;;5114613;28;20526;-70
2021/05/10 10:03:25;;;;;;;2.10;1.57;;;;;;;;;;5113537;28;20523;-70
2021/05/10 10:05:53;;;;;;;2.53;1.63;;;;;;;;;;5114041;28;20436;-71
2021/05/10 10:08:20;;;;;;;4.77;1.50;;;;;;;;;;5113734;28;20451;-70
2021/05/10 10:10:48;;;;;;;1.73;1.20;;;;;;;;;;5114250;28;20496;-70
2021/05/10 10:13:15;;;;;;;2.60;1.40;;;;;;;;;;5113709;28;20485;-70
2021/05/10 10:15:42;;;;;;;2.03;1.50;;;;;;;;;;5114130;28;20974;-70
2021/05/10 10:18:10;;;;;;;1.40;1.30;;;;;;;;;;5113553;28;20506;-70
2021/05/10 10:20:37;;;;;;;2.20;1.23;;;;;;;;;;5114210;28;20767;-70
2021/05/10 10:23:05;;;;;;;1.40;1.10;;;;;;;;;;5113443;28;20476;-68
2021/05/10 10:25:32;;;;;;;2.40;1.13;;;;;;;;;;5113945;28;20885;-71
2021/05/10 10:28:00;;;;;;;0.80;0.77;;;;;;;;;;5113664;28;20439;-70
2021/05/10 10:30:28;;;;;;;2.90;1.47;;;;;;;;;;5113087;28;20448;-70
2021/05/10 10:32:59;;;;;;;0.97;0.80;;;;;;;;;;5113574;28;20526;-70
2021/05/10 10:35:26;;;;;;;1.23;0.70;;;;;;;;;;5113252;28;20826;-70
2021/05/10 10:37:52;;;;;;;1.87;0.97;;;;;;;;;;5113022;28;20530;-68
2021/05/10 10:40:21;;;;;;;1.10;0.70;;;;;;;;;;5112576;28;20783;-68
2021/05/10 10:42:48;;;;;;;2.30;0.80;;;;;;;;;;5113715;28;20446;-68
2021/05/10 10:45:21;;;;;;;1.10;0.90;;;;;;;;;;5112795;28;20542;-71
2021/05/10 10:47:53;;;;;;;3.20;1.93;;;;;;;;;;5113286;28;20517;-71
2021/05/10 10:50:20;;;;;;;1.23;1.00;;;;;;;;;;5112816;28;20454;-71
2021/05/10 10:52:48;;;;;;;1.20;0.90;;;;;;;;;;5113551;28;20439;-70
2021/05/10 10:55:15;;;;;;;4.80;1.03;;;;;;;;;;5112836;28;20440;-71
2021/05/10 10:57:42;;;;;;;1.20;1.10;;;;;;;;;;5113368;28;20520;-71
2021/05/10 11:00:10;;;;;;;2.77;2.50;;;;;;;;;;5112848;28;20471;-70
2021/05/10 11:02:47;;;;;;;3.20;1.10;;;;;;;;;;5113389;28;20797;-70
2021/05/10 11:05:19;;;;;;;0.93;0.83;;;;;;;;;;5112634;28;20423;-71
2021/05/10 11:07:49;;;;;;;1.60;1.10;;;;;;;;;;5113184;28;20439;-70
2021/05/10 11:10:35;;;;;;;1.73;1.20;;;;;;;;;;5112452;28;20808;-71
2021/05/10 11:13:02;;;;;;;1.33;1.13;;;;;;;;;;5112786;28;20496;-71
2021/05/10 11:15:48;;;;;;;4.47;1.80;;;;;;;;;;5112166;28;20483;-71
2021/05/10 11:18:38;;;;;;;1.93;1.43;;;;;;;;;;5112349;28;20479;-70
2021/05/10 11:21:06;;;;;;;1.20;1.10;;;;;;;;;;5113111;28;20439;-71
2021/05/10 11:23:34;;;;;;;1.30;1.10;;;;;;;;;;5112905;28;20444;-71
2021/05/10 11:26:02;;;;;;;2.83;0.90;;;;;;;;;;5112641;28;20454;-70
2021/05/10 11:28:47;;;;;;;1.80;1.30;;;;;;;;;;5111987;28;20963;-71
2021/05/10 11:31:18;;;;;;;2.07;0.90;;;;;;;;;;5111920;28;20424;-70
2021/05/10 11:34:04;;;;;;;1.93;1.03;;;;;;;;;;5112742;28;20420;-70
2021/05/10 11:36:32;;;;;;;0.67;0.57;;;;;;;;;;5112132;28;20536;-71
2021/05/10 11:39:00;;;;;;;1.20;1.00;;;;;;;;;;5112515;28;20476;-71
2021/05/10 11:41:30;;;;;;;2.57;0.97;;;;;;;;;;5111939;28;20450;-71
2021/05/10 11:43:58;;;;;;;2.13;1.07;;;22.80;99.90;;;;;;5112504;28;20527;-70
2021/05/10 11:46:38;;;;;;;2.00;0.90;;;21.10;99.90;;;;;;5111511;28;20476;-71
2021/05/10 11:49:06;;;;;;;2.40;0.97;;;21.10;99.90;;;;;;5112172;28;20427;-70
2021/05/10 11:51:36;;;;;;;1.73;1.17;;;21.00;99.90;;;;;;5111623;28;20473;-70
2021/05/10 11:54:05;;;;;;;1.13;0.73;;;21.10;99.90;;;;;;5112422;28;20506;-70
2021/05/10 11:56:35;;;;;;;1.50;1.20;;;21.10;99.90;;;;;;5111390;28;20451;-70
2021/05/10 11:59:10;;;;;;;2.17;1.00;;;21.10;99.90;;;;;;5111962;28;20467;-71
2021/05/10 12:01:40;;;;;;;1.67;0.80;;;21.00;99.90;;;;;;5112058;28;20431;-71
2021/05/10 12:04:18;;;;;;;4.93;1.53;;;20.90;99.90;;;;;;5111966;28;20851;-70
2021/05/10 12:06:45;;;;;;;4.00;0.80;;;20.90;99.90;;;;;;5112067;28;20469;-71
2021/05/10 12:09:31;;;;;;;3.90;1.00;;;20.80;99.90;;;;;;5111164;28;20951;-70
2021/05/10 12:11:58;;;;;;;1.53;0.80;;;;;;;;;;5112508;28;20424;-70
2021/05/10 12:14:25;;;;;;;4.70;1.00;;;;;;;;;;5111044;28;20448;-71
2021/05/10 12:17:08;;;;;;;2.40;1.13;;;;;;;;;;5111800;28;20493;-70
2021/05/10 12:19:50;;;;;;;1.67;0.90;;;;;;;;;;5110880;28;20536;-71
2021/05/10 12:22:18;;;;;;;1.47;0.83;;;;;;;;;;5111010;28;20439;-71
2021/05/10 12:24:57;;;;;;;1.63;0.90;;;;;;;;;;5111919;28;20482;-71
2021/05/10 12:27:25;;;;;;;1.93;1.00;;;;;;;;;;5111288;28;20450;-71
2021/05/10 12:29:52;;;;;;;1.23;0.60;;;;;;;;;;5111809;28;20478;-71
2021/05/10 12:32:19;;;;;;;1.63;0.80;;;;;;;;;;5111247;28;20530;-70
2021/05/10 12:34:45;;;;;;;2.83;0.90;;;;;;;;;;5111084;28;20982;-71
2021/05/10 12:37:12;;;;;;;1.30;0.93;;;;;;;;;;5111105;28;20910;-68
2021/05/10 12:39:40;;;;;;;2.93;0.73;;;;;;;;;;5111530;28;20542;-70
2021/05/10 12:42:16;;;;;;;1.00;0.90;;;;;;;;;;5111772;28;20843;-71
2021/05/10 12:44:43;;;;;;;1.40;0.83;;;;;;;;;;5111198;28;20912;-70
2021/05/10 12:47:10;;;;;;;1.63;1.00;;;;;;;;;;5111557;28;20834;-70
2021/05/10 12:49:44;;;;;;;1.00;0.90;;;;;;;;;;5110943;28;20522;-70
2021/05/10 12:52:10;;;;;;;1.13;0.70;;;;;;;;;;5111659;28;20420;-71
2021/05/10 12:54:44;;;;;;;1.43;0.50;;;;;;;;;;5111099;28;20506;-71
2021/05/10 12:57:11;;;;;;;0.60;0.60;;;;;;;;;;5111239;28;21027;-70
2021/05/10 12:59:48;;;;;;;1.43;0.60;;;;;;;;;;5111086;28;20471;-70
2021/05/10 13:02:18;;;;;;;0.93;0.60;;;;;;;;;;5112379;28;20439;-71
2021/05/10 13:04:45;;;;;;;0.60;0.50;;;;;;;;;;5115332;28;20533;-71
2021/05/10 13:07:11;;;;;;;0.60;0.50;;;;;;;;;;5115330;28;20991;-70
2021/05/10 13:09:38;;;;;;;0.73;0.60;;;;;;;;;;5114606;28;20443;-70
2021/05/10 13:12:11;;;;;;;0.57;0.50;;;;;;;;;;5115209;28;20530;-71
2021/05/10 13:14:40;;;;;;;1.33;0.60;;;;;;;;;;5114788;28;20485;-71
2021/05/10 13:17:13;;;;;;;0.50;0.50;;;;;;;;;;5115291;28;20503;-71
2021/05/10 13:31:32;;;;;;;0.53;0.40;;;;;;;;;;5114913;28;20481;-69
2021/05/10 13:34:06;;;;;;;1.47;0.53;;;;;;;;;;5114994;28;20444;-69
2021/05/10 13:36:35;;;;;;;0.50;0.50;;;;;;;;;;5114173;28;20479;-70
2021/05/10 13:39:04;;;;;;;0.70;0.60;;;;;;;;;;5114683;28;20574;-69
2021/05/10 13:41:35;;;;;;;1.30;0.70;;;;;;;;;;5114281;28;20443;-70
2021/05/10 13:44:05;;;;;;;2.30;0.60;;;;;;;;;;5114972;28;20420;-70
2021/05/10 13:46:32;;;;;;;0.60;0.50;;;;;;;;;;5113518;28;21014;-70
2021/05/10 13:48:59;;;;;;;1.33;0.50;;;;;;;;;;5114345;28;20530;-69
2021/05/10 13:51:26;;;;;;;2.20;0.53;;;;;;;;;;5113592;28;20450;-70
2021/05/10 13:53:53;;;;;;;0.83;0.50;;;;;;;;;;5114409;28;20539;-70
2021/05/10 13:56:20;;;;;;;0.70;0.50;;;;;;;;;;5113708;28;20467;-70
2021/05/10 13:58:47;;;;;;;0.80;0.70;;;;;;;;;;5114396;28;20515;-70
2021/05/10 14:01:15;;;;;;;0.70;0.43;;;;;;;;;;5114390;28;20779;-71
2021/05/10 14:03:42;;;;;;;0.63;0.60;;;;;;;;;;5114001;28;20931;-70
2021/05/10 14:06:09;;;;;;;5.93;0.77;;;;;;;;;;5114356;28;20577;-70
2021/05/10 14:08:36;;;;;;;0.60;0.50;;;;;;;;;;5113677;28;20454;-70
2021/05/10 14:11:03;;;;;;;0.60;0.50;;;;;;;;;;5113942;28;20920;-70
2021/05/10 14:13:31;;;;;;;1.13;0.60;;;;;;;;;;5113033;28;20451;-70
2021/05/10 14:15:57;;;;;;;0.63;0.60;;;;;;;;;;5114085;28;20459;-70
2021/05/10 14:18:27;;;;;;;0.80;0.60;;;;;;;;;;5113510;28;20564;-70
2021/05/10 14:23:38;;;;;;;1.50;1.10;;;;;;;;;;5113233;28;20827;-70
2021/05/10 14:26:05;;;;;;;1.07;0.60;;;;;;;;;;5113966;28;20450;-70
2021/05/10 14:28:33;;;;;;;0.87;0.50;;;;;;;;;;5113334;28;20496;-70
2021/05/10 14:31:01;;;;;;;0.77;0.70;;;;;;;;;;5113858;28;20804;-70
2021/05/10 14:33:30;;;;;;;1.67;0.70;;;;;;;;;;5113318;28;20450;-70
2021/05/10 14:35:57;;;;;;;0.70;0.67;;;;;;;;;;5113906;28;20444;-70
2021/05/10 14:38:24;;;;;;;0.80;0.50;;;;;;;;;;5113099;28;20502;-69